sensor_id;sensor_type;location;lat;lon;timestamp;pressure;altitude;pressure_sealevel;temperature;humidity
51333;BME280;37417;48.118;11.734;2023-06-22T00:02:27;95574.16;;;17.41;100.00
51333;BME280;37417;48.118;11.734;2023-06-22T00:05:12;95559.44;;;17.45;100.00
51333;BME280;37417;48.118;11.734;2023-06-22T00:08:02;95536.84;;;17.49;100.00
51333;BME280;37417;48.118;11.734;2023-06-22T00:10:48;95528.34;;;17.58;100.00
51333;BME280;37417;48.118;11.734;2023-06-22T00:13:34;95520.81;;;17.67;100.00
51333;BME280;37417;48.118;11.734;2023-06-22T00:16:19;95523.72;;;17.66;100.00
51333;BME280;37417;48.118;11.734;2023-06-22T00:19:05;95536.66;;;17.67;100.00
51333;BME280;37417;48.118;11.734;2023-06-22T00:21:51;95541.84;;;17.62;100.00
51333;BME280;37417;48.118;11.734;2023-06-22T00:24:39;95543.81;;;17.55;100.00
51333;BME280;37417;48.118;11.734;2023-06-22T00:27:25;95550.22;;;17.59;100.00
51333;BME280;37417;48.118;11.734;2023-06-22T00:30:11;95548.16;;;17.61;100.00
51333;BME280;37417;48.118;11.734;2023-06-22T00:32:58;95551.69;;;17.67;100.00
51333;BME280;37417;48.118;11.734;2023-06-22T00:35:44;95541.81;;;17.74;100.00
51333;BME280;37417;48.118;11.734;2023-06-22T00:38:29;95541.81;;;17.74;100.00
51333;BME280;37417;48.118;11.734;2023-06-22T00:41:15;95529.13;;;17.59;100.00
51333;BME280;37417;48.118;11.734;2023-06-22T00:44:01;95534.59;;;17.41;100.00
51333;BME280;37417;48.118;11.734;2023-06-22T00:46:47;95544.09;;;17.42;100.00
51333;BME280;37417;48.118;11.734;2023-06-22T00:49:32;95544.69;;;17.32;100.00
51333;BME280;37417;48.118;11.734;2023-06-22T00:52:20;95549.94;;;17.15;100.00
51333;BME280;37417;48.118;11.734;2023-06-22T00:55:07;95544.44;;;17.05;100.00
51333;BME280;37417;48.118;11.734;2023-06-22T00:57:53;95543.66;;;16.93;100.00
51333;BME280;37417;48.118;11.734;2023-06-22T01:00:42;95549.31;;;16.85;100.00
51333;BME280;37417;48.118;11.734;2023-06-22T01:03:28;95554.00;;;16.71;100.00
51333;BME280;37417;48.118;11.734;2023-06-22T01:06:18;95552.75;;;16.62;100.00
51333;BME280;37417;48.118;11.734;2023-06-22T01:09:15;95553.88;;;16.54;100.00
51333;BME280;37417;48.118;11.734;2023-06-22T01:12:06;95551.16;;;16.49;100.00
51333;BME280;37417;48.118;11.734;2023-06-22T01:15:04;95554.09;;;16.41;100.00
51333;BME280;37417;48.118;11.734;2023-06-22T01:17:52;95547.72;;;16.37;100.00
51333;BME280;37417;48.118;11.734;2023-06-22T01:20:39;95538.53;;;16.28;100.00
51333;BME280;37417;48.118;11.734;2023-06-22T01:23:26;95535.78;;;16.22;100.00
51333;BME280;37417;48.118;11.734;2023-06-22T01:29:21;95542.88;;;16.34;100.00
51333;BME280;37417;48.118;11.734;2023-06-22T01:32:09;95543.25;;;16.25;100.00
51333;BME280;37417;48.118;11.734;2023-06-22T01:35:01;95535.91;;;16.28;100.00
51333;BME280;37417;48.118;11.734;2023-06-22T01:37:49;95540.25;;;16.34;100.00
51333;BME280;37417;48.118;11.734;2023-06-22T01:40:36;95538.78;;;16.49;100.00
51333;BME280;37417;48.118;11.734;2023-06-22T01:43:24;95517.69;;;16.61;100.00
51333;BME280;37417;48.118;11.734;2023-06-22T01:46:11;95506.59;;;16.71;100.00
51333;BME280;37417;48.118;11.734;2023-06-22T01:48:57;95507.84;;;16.80;100.00
51333;BME280;37417;48.118;11.734;2023-06-22T01:51:43;95505.06;;;16.87;100.00
51333;BME280;37417;48.118;11.734;2023-06-22T01:54:29;95498.69;;;16.83;100.00
51333;BME280;37417;48.118;11.734;2023-06-22T01:57:15;95490.31;;;16.74;100.00
51333;BME280;37417;48.118;11.734;2023-06-22T02:00:03;95499.16;;;16.56;100.00
51333;BME280;37417;48.118;11.734;2023-06-22T02:02:59;95498.00;;;16.40;100.00
51333;BME280;37417;48.118;11.734;2023-06-22T02:05:56;95496.91;;;16.36;100.00
51333;BME280;37417;48.118;11.734;2023-06-22T02:08:49;95500.22;;;16.32;100.00
51333;BME280;37417;48.118;11.734;2023-06-22T02:11:37;95508.00;;;16.38;100.00
51333;BME280;37417;48.118;11.734;2023-06-22T02:14:26;95520.09;;;16.28;100.00
51333;BME280;37417;48.118;11.734;2023-06-22T02:17:12;95521.38;;;16.13;100.00
51333;BME280;37417;48.118;11.734;2023-06-22T02:19:58;95524.78;;;16.02;100.00
51333;BME280;37417;48.118;11.734;2023-06-22T02:22:44;95529.47;;;16.00;100.00
51333;BME280;37417;48.118;11.734;2023-06-22T02:25:30;95534.16;;;15.86;100.00
51333;BME280;37417;48.118;11.734;2023-06-22T02:28:15;95535.72;;;15.76;100.00
51333;BME280;37417;48.118;11.734;2023-06-22T02:31:01;95531.34;;;15.69;100.00
51333;BME280;37417;48.118;11.734;2023-06-22T02:33:46;95545.19;;;15.65;100.00
51333;BME280;37417;48.118;11.734;2023-06-22T02:36:33;95553.56;;;15.74;100.00
51333;BME280;37417;48.118;11.734;2023-06-22T02:39:23;95545.66;;;15.74;100.00
51333;BME280;37417;48.118;11.734;2023-06-22T02:42:09;95556.94;;;15.62;100.00
51333;BME280;37417;48.118;11.734;2023-06-22T02:44:57;95563.81;;;15.63;100.00
51333;BME280;37417;48.118;11.734;2023-06-22T02:47:44;95570.72;;;15.58;100.00
51333;BME280;37417;48.118;11.734;2023-06-22T02:50:29;95588.00;;;15.54;100.00
51333;BME280;37417;48.118;11.734;2023-06-22T02:53:15;95584.41;;;15.66;100.00
51333;BME280;37417;48.118;11.734;2023-06-22T02:56:04;95592.56;;;15.58;100.00
51333;BME280;37417;48.118;11.734;2023-06-22T02:58:52;95594.22;;;15.41;100.00
51333;BME280;37417;48.118;11.734;2023-06-22T03:01:38;95594.53;;;15.33;100.00
51333;BME280;37417;48.118;11.734;2023-06-22T03:04:25;95589.22;;;15.21;100.00
51333;BME280;37417;48.118;11.734;2023-06-22T03:07:11;95595.56;;;15.13;100.00
51333;BME280;37417;48.118;11.734;2023-06-22T03:09:57;95601.41;;;15.15;100.00
51333;BME280;37417;48.118;11.734;2023-06-22T03:12:42;95606.28;;;15.30;100.00
51333;BME280;37417;48.118;11.734;2023-06-22T03:15:28;95609.94;;;15.29;100.00
51333;BME280;37417;48.118;11.734;2023-06-22T03:18:18;95613.59;;;15.28;100.00
51333;BME280;37417;48.118;11.734;2023-06-22T03:21:03;95608.97;;;15.42;100.00
51333;BME280;37417;48.118;11.734;2023-06-22T03:23:49;95605.50;;;15.60;100.00
51333;BME280;37417;48.118;11.734;2023-06-22T03:26:35;95603.88;;;15.77;100.00
51333;BME280;37417;48.118;11.734;2023-06-22T03:29:20;95601.88;;;15.91;100.00
51333;BME280;37417;48.118;11.734;2023-06-22T03:32:06;95600.06;;;16.03;100.00
51333;BME280;37417;48.118;11.734;2023-06-22T03:34:52;95583.84;;;16.06;100.00
51333;BME280;37417;48.118;11.734;2023-06-22T03:37:37;95596.53;;;16.09;100.00
51333;BME280;37417;48.118;11.734;2023-06-22T03:40:23;95587.97;;;16.14;100.00
51333;BME280;37417;48.118;11.734;2023-06-22T03:43:09;95594.84;;;16.27;100.00
51333;BME280;37417;48.118;11.734;2023-06-22T03:45:54;95593.94;;;16.33;100.00
51333;BME280;37417;48.118;11.734;2023-06-22T03:48:40;95588.19;;;16.36;100.00
51333;BME280;37417;48.118;11.734;2023-06-22T03:51:26;95582.84;;;16.42;100.00
51333;BME280;37417;48.118;11.734;2023-06-22T03:54:11;95582.50;;;16.39;100.00
51333;BME280;37417;48.118;11.734;2023-06-22T03:56:58;95583.53;;;16.38;100.00
51333;BME280;37417;48.118;11.734;2023-06-22T03:59:43;95582.03;;;16.42;100.00
51333;BME280;37417;48.118;11.734;2023-06-22T04:02:29;95577.81;;;16.52;100.00
51333;BME280;37417;48.118;11.734;2023-06-22T04:05:15;95580.56;;;16.69;100.00
51333;BME280;37417;48.118;11.734;2023-06-22T04:08:03;95573.91;;;16.90;100.00
51333;BME280;37417;48.118;11.734;2023-06-22T04:10:48;95572.63;;;17.04;100.00
51333;BME280;37417;48.118;11.734;2023-06-22T04:13:34;95581.44;;;17.22;100.00
51333;BME280;37417;48.118;11.734;2023-06-22T04:16:20;95576.34;;;17.32;100.00
51333;BME280;37417;48.118;11.734;2023-06-22T04:19:05;95571.03;;;17.44;100.00
51333;BME280;37417;48.118;11.734;2023-06-22T04:21:51;95559.63;;;17.55;100.00
51333;BME280;37417;48.118;11.734;2023-06-22T04:24:37;95547.97;;;17.79;100.00
51333;BME280;37417;48.118;11.734;2023-06-22T04:27:22;95536.25;;;18.04;100.00
51333;BME280;37417;48.118;11.734;2023-06-22T04:30:08;95536.66;;;18.12;100.00
51333;BME280;37417;48.118;11.734;2023-06-22T04:32:54;95522.72;;;18.17;100.00
51333;BME280;37417;48.118;11.734;2023-06-22T04:35:46;95517.84;;;18.26;100.00
51333;BME280;37417;48.118;11.734;2023-06-22T04:38:31;95524.84;;;18.54;100.00
51333;BME280;37417;48.118;11.734;2023-06-22T04:41:19;95521.50;;;18.80;100.00
51333;BME280;37417;48.118;11.734;2023-06-22T04:44:16;95517.72;;;18.93;100.00
51333;BME280;37417;48.118;11.734;2023-06-22T04:47:11;95516.69;;;19.16;100.00
51333;BME280;37417;48.118;11.734;2023-06-22T04:49:57;95519.78;;;19.35;100.00
51333;BME280;37417;48.118;11.734;2023-06-22T04:52:42;95511.69;;;19.19;100.00
51333;BME280;37417;48.118;11.734;2023-06-22T04:55:28;95494.97;;;19.63;100.00
51333;BME280;37417;48.118;11.734;2023-06-22T04:58:14;95502.53;;;19.81;100.00
51333;BME280;37417;48.118;11.734;2023-06-22T05:00:59;95495.59;;;20.07;100.00
51333;BME280;37417;48.118;11.734;2023-06-22T05:03:45;95488.56;;;20.23;100.00
51333;BME280;37417;48.118;11.734;2023-06-22T05:06:30;95486.34;;;20.47;100.00
51333;BME280;37417;48.118;11.734;2023-06-22T05:09:16;95478.06;;;20.80;100.00
51333;BME280;37417;48.118;11.734;2023-06-22T05:12:03;95486.91;;;21.01;100.00
51333;BME280;37417;48.118;11.734;2023-06-22T05:14:50;95476.59;;;21.15;100.00
51333;BME280;37417;48.118;11.734;2023-06-22T05:17:36;95468.47;;;21.32;100.00
51333;BME280;37417;48.118;11.734;2023-06-22T05:20:27;95467.41;;;21.48;100.00
51333;BME280;37417;48.118;11.734;2023-06-22T05:23:13;95472.72;;;21.48;100.00
51333;BME280;37417;48.118;11.734;2023-06-22T05:25:59;95466.91;;;21.51;100.00
51333;BME280;37417;48.118;11.734;2023-06-22T05:28:46;95464.75;;;21.43;100.00
51333;BME280;37417;48.118;11.734;2023-06-22T05:31:32;95464.75;;;21.48;100.00
51333;BME280;37417;48.118;11.734;2023-06-22T05:34:17;95468.75;;;21.61;100.00
51333;BME280;37417;48.118;11.734;2023-06-22T05:37:03;95465.06;;;22.13;100.00
51333;BME280;37417;48.118;11.734;2023-06-22T05:39:49;95477.69;;;22.72;100.00
51333;BME280;37417;48.118;11.734;2023-06-22T05:42:34;95464.59;;;23.01;100.00
51333;BME280;37417;48.118;11.734;2023-06-22T05:45:20;95469.91;;;23.06;100.00
51333;BME280;37417;48.118;11.734;2023-06-22T05:48:06;95460.78;;;23.17;100.00
51333;BME280;37417;48.118;11.734;2023-06-22T05:50:53;95461.56;;;23.23;100.00
51333;BME280;37417;48.118;11.734;2023-06-22T05:53:38;95460.78;;;23.17;100.00
51333;BME280;37417;48.118;11.734;2023-06-22T05:56:24;95465.16;;;23.42;100.00
51333;BME280;37417;48.118;11.734;2023-06-22T05:59:09;95463.22;;;23.58;100.00
51333;BME280;37417;48.118;11.734;2023-06-22T06:01:55;95472.19;;;23.72;100.00
51333;BME280;37417;48.118;11.734;2023-06-22T06:04:41;95456.84;;;23.93;100.00
51333;BME280;37417;48.118;11.734;2023-06-22T06:07:26;95463.00;;;24.23;100.00
51333;BME280;37417;48.118;11.734;2023-06-22T06:10:13;95462.06;;;24.38;100.00
51333;BME280;37417;48.118;11.734;2023-06-22T06:12:59;95471.91;;;24.66;100.00
51333;BME280;37417;48.118;11.734;2023-06-22T06:15:47;95473.03;;;24.84;100.00
51333;BME280;37417;48.118;11.734;2023-06-22T06:18:33;95468.44;;;25.14;100.00
51333;BME280;37417;48.118;11.734;2023-06-22T06:21:18;95464.56;;;25.01;100.00
51333;BME280;37417;48.118;11.734;2023-06-22T06:24:04;95471.91;;;25.14;100.00
51333;BME280;37417;48.118;11.734;2023-06-22T06:26:50;95455.63;;;25.34;100.00
51333;BME280;37417;48.118;11.734;2023-06-22T06:29:35;95448.63;;;25.76;100.00
51333;BME280;37417;48.118;11.734;2023-06-22T06:32:21;95453.53;;;26.34;100.00
51333;BME280;37417;48.118;11.734;2023-06-22T06:35:08;95449.56;;;27.06;98.71
51333;BME280;37417;48.118;11.734;2023-06-22T06:37:54;95445.28;;;27.18;94.27
51333;BME280;37417;48.118;11.734;2023-06-22T06:40:39;95446.75;;;28.28;88.32
51333;BME280;37417;48.118;11.734;2023-06-22T06:43:25;95436.66;;;28.65;83.87
51333;BME280;37417;48.118;11.734;2023-06-22T06:46:11;95437.63;;;28.60;83.18
51333;BME280;37417;48.118;11.734;2023-06-22T06:48:57;95429.56;;;28.29;83.31
51333;BME280;37417;48.118;11.734;2023-06-22T06:51:42;95438.88;;;29.02;78.32
51333;BME280;37417;48.118;11.734;2023-06-22T06:54:28;95429.97;;;28.45;81.92
51333;BME280;37417;48.118;11.734;2023-06-22T06:57:14;95436.56;;;28.78;78.87
51333;BME280;37417;48.118;11.734;2023-06-22T07:00:00;95433.09;;;29.44;74.35
51333;BME280;37417;48.118;11.734;2023-06-22T07:02:46;95429.44;;;30.00;69.89
51333;BME280;37417;48.118;11.734;2023-06-22T07:05:33;95436.25;;;30.70;66.15
51333;BME280;37417;48.118;11.734;2023-06-22T07:08:19;95435.09;;;30.25;68.01
51333;BME280;37417;48.118;11.734;2023-06-22T07:11:05;95438.09;;;30.32;65.27
51333;BME280;37417;48.118;11.734;2023-06-22T07:13:50;95438.28;;;30.18;66.02
51333;BME280;37417;48.118;11.734;2023-06-22T07:16:36;95434.44;;;30.36;64.32
51333;BME280;37417;48.118;11.734;2023-06-22T07:19:26;95435.47;;;29.45;68.07
51333;BME280;37417;48.118;11.734;2023-06-22T07:22:12;95439.44;;;29.74;68.81
51333;BME280;37417;48.118;11.734;2023-06-22T07:24:57;95440.81;;;30.23;65.61
51333;BME280;37417;48.118;11.734;2023-06-22T07:27:57;95426.56;;;30.23;64.71
51333;BME280;37417;48.118;11.734;2023-06-22T07:30:43;95431.19;;;30.60;64.51
51333;BME280;37417;48.118;11.734;2023-06-22T07:33:29;95431.78;;;31.04;61.34
51333;BME280;37417;48.118;11.734;2023-06-22T07:36:16;95423.91;;;31.70;57.11
51333;BME280;37417;48.118;11.734;2023-06-22T07:39:02;95427.22;;;32.09;56.06
51333;BME280;37417;48.118;11.734;2023-06-22T07:41:49;95422.78;;;31.30;58.69
51333;BME280;37417;48.118;11.734;2023-06-22T07:44:35;95414.81;;;31.54;56.27
51333;BME280;37417;48.118;11.734;2023-06-22T07:47:20;95411.31;;;31.74;55.09
51333;BME280;37417;48.118;11.734;2023-06-22T07:50:10;95404.84;;;31.04;58.40
51333;BME280;37417;48.118;11.734;2023-06-22T07:52:56;95401.97;;;31.93;55.91
51333;BME280;37417;48.118;11.734;2023-06-22T07:55:42;95401.84;;;32.22;53.74
51333;BME280;37417;48.118;11.734;2023-06-22T07:58:27;95403.56;;;32.51;52.00
51333;BME280;37417;48.118;11.734;2023-06-22T08:01:16;95406.84;;;32.69;50.18
51333;BME280;37417;48.118;11.734;2023-06-22T08:04:02;95403.81;;;32.46;51.21
51333;BME280;37417;48.118;11.734;2023-06-22T08:06:48;95416.63;;;32.37;51.15
51333;BME280;37417;48.118;11.734;2023-06-22T08:09:34;95408.09;;;32.59;51.82
51333;BME280;37417;48.118;11.734;2023-06-22T08:12:20;95423.50;;;33.32;50.35
51333;BME280;37417;48.118;11.734;2023-06-22T08:15:07;95411.59;;;33.09;48.44
51333;BME280;37417;48.118;11.734;2023-06-22T08:17:53;95411.38;;;32.53;49.30
51333;BME280;37417;48.118;11.734;2023-06-22T08:20:38;95414.97;;;31.78;52.80
51333;BME280;37417;48.118;11.734;2023-06-22T08:23:24;95409.84;;;31.98;51.88
51333;BME280;37417;48.118;11.734;2023-06-22T08:26:10;95399.06;;;31.98;53.26
51333;BME280;37417;48.118;11.734;2023-06-22T08:28:55;95392.78;;;32.06;53.85
51333;BME280;37417;48.118;11.734;2023-06-22T08:31:41;95406.31;;;33.00;49.72
51333;BME280;37417;48.118;11.734;2023-06-22T08:34:27;95395.94;;;32.66;51.12
51333;BME280;37417;48.118;11.734;2023-06-22T08:37:13;95402.22;;;32.45;51.99
51333;BME280;37417;48.118;11.734;2023-06-22T08:39:59;95397.63;;;32.58;51.65
51333;BME280;37417;48.118;11.734;2023-06-22T08:42:47;95397.97;;;32.11;51.63
51333;BME280;37417;48.118;11.734;2023-06-22T08:45:32;95392.97;;;33.44;47.72
51333;BME280;37417;48.118;11.734;2023-06-22T08:48:18;95398.16;;;31.73;50.96
51333;BME280;37417;48.118;11.734;2023-06-22T08:51:04;95389.72;;;31.74;52.80
51333;BME280;37417;48.118;11.734;2023-06-22T08:53:50;95392.09;;;31.97;52.55
51333;BME280;37417;48.118;11.734;2023-06-22T08:56:35;95391.09;;;31.47;54.00
51333;BME280;37417;48.118;11.734;2023-06-22T08:59:21;95392.72;;;32.15;52.42
51333;BME280;37417;48.118;11.734;2023-06-22T09:02:06;95389.28;;;32.39;51.78
51333;BME280;37417;48.118;11.734;2023-06-22T09:04:52;95388.97;;;32.40;50.94
51333;BME280;37417;48.118;11.734;2023-06-22T09:07:41;95397.03;;;32.52;51.13
51333;BME280;37417;48.118;11.734;2023-06-22T09:10:27;95383.44;;;32.61;51.66
51333;BME280;37417;48.118;11.734;2023-06-22T09:13:12;95387.69;;;32.38;52.42
51333;BME280;37417;48.118;11.734;2023-06-22T09:15:58;95381.56;;;33.51;49.37
51333;BME280;37417;48.118;11.734;2023-06-22T09:18:47;95388.28;;;32.43;49.06
51333;BME280;37417;48.118;11.734;2023-06-22T09:21:32;95390.41;;;32.50;50.45
51333;BME280;37417;48.118;11.734;2023-06-22T09:24:18;95385.81;;;32.99;48.77
51333;BME280;37417;48.118;11.734;2023-06-22T09:27:04;95386.81;;;32.58;50.59
51333;BME280;37417;48.118;11.734;2023-06-22T09:29:50;95388.97;;;32.89;50.37
51333;BME280;37417;48.118;11.734;2023-06-22T09:32:35;95376.00;;;33.07;51.67
51333;BME280;37417;48.118;11.734;2023-06-22T09:35:21;95375.78;;;32.39;52.26
51333;BME280;37417;48.118;11.734;2023-06-22T09:38:06;95364.00;;;34.01;48.35
51333;BME280;37417;48.118;11.734;2023-06-22T09:40:52;95358.38;;;33.93;49.49
51333;BME280;37417;48.118;11.734;2023-06-22T09:43:38;95358.69;;;34.20;47.71
51333;BME280;37417;48.118;11.734;2023-06-22T09:46:23;95364.56;;;34.54;45.60
51333;BME280;37417;48.118;11.734;2023-06-22T09:49:12;95364.81;;;33.89;47.64
51333;BME280;37417;48.118;11.734;2023-06-22T09:51:57;95365.78;;;34.72;45.16
51333;BME280;37417;48.118;11.734;2023-06-22T09:54:43;95362.19;;;34.36;47.16
51333;BME280;37417;48.118;11.734;2023-06-22T09:57:29;95358.59;;;34.32;44.75
51333;BME280;37417;48.118;11.734;2023-06-22T10:00:16;95359.06;;;34.66;44.30
51333;BME280;37417;48.118;11.734;2023-06-22T10:03:02;95359.38;;;34.80;43.74
51333;BME280;37417;48.118;11.734;2023-06-22T10:05:48;95356.91;;;35.26;43.88
51333;BME280;37417;48.118;11.734;2023-06-22T10:08:34;95356.03;;;35.22;43.95
51333;BME280;37417;48.118;11.734;2023-06-22T10:11:20;95352.19;;;35.23;41.91
51333;BME280;37417;48.118;11.734;2023-06-22T10:14:08;95342.88;;;34.69;44.06
51333;BME280;37417;48.118;11.734;2023-06-22T10:16:53;95337.91;;;34.56;44.14
51333;BME280;37417;48.118;11.734;2023-06-22T10:19:39;95338.06;;;34.63;45.08
51333;BME280;37417;48.118;11.734;2023-06-22T10:22:27;95339.72;;;34.36;45.10
51333;BME280;37417;48.118;11.734;2023-06-22T10:25:13;95334.94;;;35.12;44.49
51333;BME280;37417;48.118;11.734;2023-06-22T10:27:58;95333.50;;;35.37;43.90
51333;BME280;37417;48.118;11.734;2023-06-22T10:30:44;95319.63;;;35.23;44.17
51333;BME280;37417;48.118;11.734;2023-06-22T10:33:30;95330.25;;;36.09;40.26
51333;BME280;37417;48.118;11.734;2023-06-22T10:36:15;95331.34;;;36.27;41.74
51333;BME280;37417;48.118;11.734;2023-06-22T10:39:01;95332.44;;;37.92;38.21
51333;BME280;37417;48.118;11.734;2023-06-22T10:41:48;95324.78;;;39.08;35.48
51333;BME280;37417;48.118;11.734;2023-06-22T10:44:33;95325.44;;;38.32;35.71
51333;BME280;37417;48.118;11.734;2023-06-22T10:47:19;95319.75;;;39.10;35.07
51333;BME280;37417;48.118;11.734;2023-06-22T10:50:05;95310.19;;;39.52;34.17
51333;BME280;37417;48.118;11.734;2023-06-22T10:52:51;95302.88;;;41.02;31.48
51333;BME280;37417;48.118;11.734;2023-06-22T10:55:36;95303.72;;;40.39;32.30
51333;BME280;37417;48.118;11.734;2023-06-22T10:58:22;95305.28;;;40.57;33.08
51333;BME280;37417;48.118;11.734;2023-06-22T11:01:08;95312.97;;;42.56;29.64
51333;BME280;37417;48.118;11.734;2023-06-22T11:03:53;95299.06;;;41.80;29.90
51333;BME280;37417;48.118;11.734;2023-06-22T11:06:39;95312.16;;;42.14;29.44
51333;BME280;37417;48.118;11.734;2023-06-22T11:09:24;95299.72;;;42.51;29.21
51333;BME280;37417;48.118;11.734;2023-06-22T11:12:10;95297.72;;;41.26;30.27
51333;BME280;37417;48.118;11.734;2023-06-22T11:14:56;95290.81;;;42.84;27.25
51333;BME280;37417;48.118;11.734;2023-06-22T11:17:42;95282.53;;;42.46;27.36
51333;BME280;37417;48.118;11.734;2023-06-22T11:20:28;95280.03;;;42.11;27.89
51333;BME280;37417;48.118;11.734;2023-06-22T11:23:13;95280.63;;;40.82;29.03
51333;BME280;37417;48.118;11.734;2023-06-22T11:25:59;95276.13;;;38.00;31.97
51333;BME280;37417;48.118;11.734;2023-06-22T11:28:45;95274.47;;;37.92;34.28
51333;BME280;37417;48.118;11.734;2023-06-22T11:31:33;95278.06;;;38.51;34.86
51333;BME280;37417;48.118;11.734;2023-06-22T11:34:19;95274.94;;;38.49;34.52
51333;BME280;37417;48.118;11.734;2023-06-22T11:37:05;95282.31;;;39.04;32.98
51333;BME280;37417;48.118;11.734;2023-06-22T11:39:51;95278.31;;;39.92;31.35
51333;BME280;37417;48.118;11.734;2023-06-22T11:42:37;95269.34;;;40.45;30.88
51333;BME280;37417;48.118;11.734;2023-06-22T11:45:23;95277.06;;;41.07;30.32
51333;BME280;37417;48.118;11.734;2023-06-22T11:48:08;95257.97;;;40.93;30.06
51333;BME280;37417;48.118;11.734;2023-06-22T11:50:54;95262.53;;;41.21;31.18
51333;BME280;37417;48.118;11.734;2023-06-22T11:53:40;95265.56;;;41.48;32.50
51333;BME280;37417;48.118;11.734;2023-06-22T11:56:26;95252.09;;;42.34;30.40
51333;BME280;37417;48.118;11.734;2023-06-22T11:59:13;95259.22;;;42.24;30.63
51333;BME280;37417;48.118;11.734;2023-06-22T12:01:59;95257.59;;;41.78;30.70
51333;BME280;37417;48.118;11.734;2023-06-22T12:04:45;95252.50;;;43.11;29.18
51333;BME280;37417;48.118;11.734;2023-06-22T12:07:31;95249.16;;;41.44;31.41
51333;BME280;37417;48.118;11.734;2023-06-22T12:10:17;95252.50;;;41.80;30.89
51333;BME280;37417;48.118;11.734;2023-06-22T12:13:03;95245.00;;;41.11;31.24
51333;BME280;37417;48.118;11.734;2023-06-22T12:15:49;95247.91;;;42.18;30.22
51333;BME280;37417;48.118;11.734;2023-06-22T12:18:37;95241.38;;;41.28;31.26
51333;BME280;37417;48.118;11.734;2023-06-22T12:21:22;95227.94;;;40.60;31.99
51333;BME280;37417;48.118;11.734;2023-06-22T12:24:08;95226.34;;;39.52;33.79
51333;BME280;37417;48.118;11.734;2023-06-22T12:26:53;95228.22;;;39.20;34.51
51333;BME280;37417;48.118;11.734;2023-06-22T12:29:39;95219.75;;;38.66;35.11
51333;BME280;37417;48.118;11.734;2023-06-22T12:32:25;95214.16;;;37.49;37.48
51333;BME280;37417;48.118;11.734;2023-06-22T12:35:11;95211.75;;;39.09;35.20
51333;BME280;37417;48.118;11.734;2023-06-22T12:37:59;95215.25;;;41.20;32.09
51333;BME280;37417;48.118;11.734;2023-06-22T12:40:44;95208.38;;;42.19;30.23
51333;BME280;37417;48.118;11.734;2023-06-22T12:43:32;95204.38;;;43.03;28.91
51333;BME280;37417;48.118;11.734;2023-06-22T12:46:18;95193.22;;;42.83;29.12
51333;BME280;37417;48.118;11.734;2023-06-22T12:49:04;95190.25;;;42.29;30.29
51333;BME280;37417;48.118;11.734;2023-06-22T12:51:50;95186.50;;;43.18;28.72
51333;BME280;37417;48.118;11.734;2023-06-22T12:54:35;95189.44;;;43.04;28.76
51333;BME280;37417;48.118;11.734;2023-06-22T12:57:21;95185.09;;;41.90;30.13
51333;BME280;37417;48.118;11.734;2023-06-22T13:00:08;95183.06;;;41.98;30.00
51333;BME280;37417;48.118;11.734;2023-06-22T13:02:55;95185.03;;;39.79;32.34
51333;BME280;37417;48.118;11.734;2023-06-22T13:05:41;95186.19;;;39.57;33.03
51333;BME280;37417;48.118;11.734;2023-06-22T13:08:26;95191.91;;;39.05;34.49
51333;BME280;37417;48.118;11.734;2023-06-22T13:11:12;95186.84;;;39.14;33.73
51333;BME280;37417;48.118;11.734;2023-06-22T13:13:58;95190.91;;;40.27;33.16
51333;BME280;37417;48.118;11.734;2023-06-22T13:16:43;95188.94;;;39.60;33.45
51333;BME280;37417;48.118;11.734;2023-06-22T13:19:29;95183.50;;;39.89;33.44
51333;BME280;37417;48.118;11.734;2023-06-22T13:22:34;95187.38;;;40.34;32.23
51333;BME280;37417;48.118;11.734;2023-06-22T13:25:25;95183.00;;;41.53;30.62
51333;BME280;37417;48.118;11.734;2023-06-22T13:28:11;95188.78;;;41.65;30.28
51333;BME280;37417;48.118;11.734;2023-06-22T13:30:59;95183.84;;;43.69;28.41
51333;BME280;37417;48.118;11.734;2023-06-22T13:33:44;95170.16;;;42.77;28.57
51333;BME280;37417;48.118;11.734;2023-06-22T13:36:33;95176.84;;;43.37;28.11
51333;BME280;37417;48.118;11.734;2023-06-22T13:39:18;95173.34;;;44.34;26.63
51333;BME280;37417;48.118;11.734;2023-06-22T13:42:04;95174.47;;;44.37;27.38
51333;BME280;37417;48.118;11.734;2023-06-22T13:44:50;95176.78;;;44.62;26.57
51333;BME280;37417;48.118;11.734;2023-06-22T13:47:36;95163.22;;;45.47;25.32
51333;BME280;37417;48.118;11.734;2023-06-22T13:50:22;95172.81;;;46.07;24.20
51333;BME280;37417;48.118;11.734;2023-06-22T13:53:07;95167.19;;;44.70;25.86
51333;BME280;37417;48.118;11.734;2023-06-22T13:55:53;95173.09;;;46.13;24.96
51333;BME280;37417;48.118;11.734;2023-06-22T13:58:39;95172.78;;;43.18;27.72
51333;BME280;37417;48.118;11.734;2023-06-22T14:01:24;95161.84;;;43.15;27.13
51333;BME280;37417;48.118;11.734;2023-06-22T14:04:10;95152.63;;;43.83;27.32
51333;BME280;37417;48.118;11.734;2023-06-22T14:06:56;95157.03;;;44.23;26.29
51333;BME280;37417;48.118;11.734;2023-06-22T14:09:41;95156.16;;;45.09;25.19
51333;BME280;37417;48.118;11.734;2023-06-22T14:12:27;95152.97;;;44.08;26.23
51333;BME280;37417;48.118;11.734;2023-06-22T14:15:13;95146.97;;;43.43;26.20
51333;BME280;37417;48.118;11.734;2023-06-22T14:17:58;95136.47;;;43.61;26.60
51333;BME280;37417;48.118;11.734;2023-06-22T14:20:44;95141.44;;;44.60;26.01
51333;BME280;37417;48.118;11.734;2023-06-22T14:23:30;95136.38;;;43.92;26.00
51333;BME280;37417;48.118;11.734;2023-06-22T14:26:16;95144.75;;;43.58;26.52
51333;BME280;37417;48.118;11.734;2023-06-22T14:29:03;95136.97;;;43.79;26.49